SAVC

Comodoro Rivadavia/General Enrique Mosconi International Airport

Airport
ICAO code
SAVC
IATA Code
CRD
Summary
ICAO Region
CARSAM
ICAO Territory
Location

Comodoro Rivadavia, Chubut

Serving
Comodoro Rivadavia
Elevation
190 ft
Coordinates
45° 47' 12" S , 67° 27' 57" W
Metar
Observation
SAVC 072000Z 24021KT 9999 -RA SCT040 BKN050 08/03 Q1000 RMK PPP999
Station
Comodoro Rivadavia Aerodrome
Date/Time
2022-10-07 20:00:00
Wind direction
240°
Wind speed
21 kts
Lowest cloud amount
scattered clouds
Temperature
8°C
Dew point
3°C
Humidity
70%
QNH
1000 hPa
Weather condition
light rain

General Enrique Mosconi International Airport is an international airport in the Chubut Province, Argentina serving Comodoro Rivadavia. The airfield is located 11 km of the city.

Runways

Designator Length Width Surface Rops
7/25 2810 50 CON No/No

Airport map

Aerial View

SKYbrary Partners:

Safety knowledge contributed by: